createdAt,value
2023-09-06T00:02:16.341Z,100.00
2023-09-06T00:04:49.971Z,100.00
2023-09-06T00:07:19.718Z,100.00
2023-09-06T00:09:51.053Z,100.00
2023-09-06T00:12:22.017Z,100.00
2023-09-06T00:14:52.171Z,100.00
2023-09-06T00:17:21.918Z,100.00
2023-09-06T00:19:54.149Z,100.00
2023-09-06T00:22:23.812Z,100.00
2023-09-06T00:24:53.807Z,100.00
2023-09-06T00:27:23.624Z,100.00
2023-09-06T00:29:53.710Z,100.00
2023-09-06T00:32:24.194Z,100.00
2023-09-06T00:34:56.290Z,100.00
2023-09-06T00:37:25.956Z,100.00
2023-09-06T00:39:56.357Z,100.00
2023-09-06T00:42:28.118Z,100.00
2023-09-06T00:44:58.285Z,100.00
2023-09-06T00:47:28.193Z,100.00
2023-09-06T00:49:59.827Z,100.00
2023-09-06T00:52:29.890Z,100.00
2023-09-06T00:55:02.799Z,100.00
2023-09-06T00:57:33.574Z,100.00
2023-09-06T01:00:07.302Z,100.00
2023-09-06T01:02:40.074Z,100.00
2023-09-06T01:05:11.846Z,100.00
2023-09-06T01:07:42.587Z,100.00
2023-09-06T01:10:12.674Z,100.00
2023-09-06T01:12:42.441Z,100.00
2023-09-06T01:15:13.673Z,100.00
2023-09-06T01:17:45.715Z,100.00
2023-09-06T01:20:21.256Z,100.00
2023-09-06T01:22:54.326Z,100.00
2023-09-06T01:25:25.962Z,100.00
2023-09-06T01:27:55.831Z,100.00
2023-09-06T01:30:30.559Z,100.00
2023-09-06T01:33:00.501Z,100.00
2023-09-06T01:35:30.476Z,100.00
2023-09-06T01:38:00.138Z,100.00
2023-09-06T01:40:31.689Z,100.00
2023-09-06T01:43:01.481Z,100.00
2023-09-06T01:45:31.401Z,100.00
2023-09-06T01:48:04.540Z,100.00
2023-09-06T01:50:34.832Z,100.00
2023-09-06T01:53:04.732Z,100.00
2023-09-06T01:55:36.130Z,100.00
2023-09-06T01:58:06.931Z,100.00
2023-09-06T02:00:38.828Z,100.00
2023-09-06T02:03:09.302Z,100.00
2023-09-06T02:05:41.102Z,100.00
2023-09-06T02:08:10.989Z,100.00
2023-09-06T02:10:42.694Z,100.00
2023-09-06T02:13:12.519Z,100.00
2023-09-06T02:15:43.431Z,100.00
2023-09-06T02:18:19.456Z,100.00
2023-09-06T02:20:51.189Z,100.00
2023-09-06T02:23:21.221Z,100.00
2023-09-06T02:25:52.705Z,100.00
2023-09-06T02:28:22.390Z,100.00
2023-09-06T02:30:52.525Z,100.00
2023-09-06T02:33:22.206Z,100.00
2023-09-06T02:35:52.506Z,100.00
2023-09-06T02:38:22.197Z,100.00
2023-09-06T02:40:53.769Z,100.00
2023-09-06T02:43:24.455Z,100.00
2023-09-06T02:45:56.219Z,100.00
2023-09-06T02:48:28.975Z,100.00
2023-09-06T02:50:59.600Z,100.00
2023-09-06T02:53:32.634Z,100.00
2023-09-06T02:56:05.114Z,100.00
2023-09-06T02:58:38.878Z,100.00
2023-09-06T03:01:08.187Z,100.00
2023-09-06T03:03:38.018Z,100.00
2023-09-06T03:06:08.024Z,100.00
2023-09-06T03:08:38.445Z,100.00
2023-09-06T03:11:13.118Z,100.00
2023-09-06T03:13:43.005Z,100.00
2023-09-06T03:16:14.986Z,100.00
2023-09-06T03:18:47.186Z,100.00
2023-09-06T03:21:18.464Z,100.00
2023-09-06T03:23:48.682Z,100.00
2023-09-06T03:26:24.324Z,100.00
2023-09-06T03:28:56.547Z,100.00
2023-09-06T03:31:27.683Z,100.00
2023-09-06T03:33:57.872Z,100.00
2023-09-06T03:36:28.157Z,100.00
2023-09-06T03:38:58.271Z,100.00
2023-09-06T03:41:30.666Z,100.00
2023-09-06T03:44:00.545Z,100.00
2023-09-06T03:46:30.542Z,100.00
2023-09-06T03:49:00.535Z,100.00
2023-09-06T03:51:30.631Z,100.00
2023-09-06T03:54:00.565Z,100.00
2023-09-06T03:56:32.154Z,100.00
2023-09-06T03:59:02.129Z,100.00
2023-09-06T04:01:34.555Z,100.00
2023-09-06T04:04:05.912Z,100.00
2023-09-06T04:06:37.012Z,100.00
2023-09-06T04:09:14.299Z,100.00
2023-09-06T04:11:48.117Z,100.00
2023-09-06T04:14:18.019Z,100.00
2023-09-06T04:16:48.371Z,100.00
2023-09-06T04:19:18.422Z,100.00
2023-09-06T04:21:49.573Z,100.00
2023-09-06T04:24:22.122Z,100.00
2023-09-06T04:26:54.296Z,100.00
2023-09-06T04:29:25.719Z,100.00
2023-09-06T04:31:57.109Z,100.00
2023-09-06T04:34:28.073Z,100.00
2023-09-06T04:36:58.083Z,100.00
2023-09-06T04:39:31.934Z,100.00
2023-09-06T04:42:03.543Z,100.00
2023-09-06T04:44:33.831Z,100.00
2023-09-06T04:47:04.035Z,100.00
2023-09-06T04:49:33.793Z,100.00
2023-09-06T04:52:03.894Z,100.00
2023-09-06T04:54:35.261Z,100.00
2023-09-06T04:57:07.275Z,100.00
2023-09-06T04:59:39.002Z,100.00
2023-09-06T05:02:09.582Z,100.00
2023-09-06T05:04:39.983Z,100.00
2023-09-06T05:07:10.201Z,100.00
2023-09-06T05:09:40.608Z,100.00
2023-09-06T05:12:14.213Z,100.00
2023-09-06T05:14:43.997Z,100.00
2023-09-06T05:17:14.529Z,100.00
2023-09-06T05:19:44.395Z,100.00
2023-09-06T05:22:14.643Z,100.00
2023-09-06T05:24:44.417Z,100.00
2023-09-06T05:27:16.386Z,100.00
2023-09-06T05:29:46.408Z,100.00
2023-09-06T05:32:20.389Z,100.00
2023-09-06T05:34:51.192Z,100.00
2023-09-06T05:37:21.389Z,100.00
2023-09-06T05:39:52.167Z,100.00
2023-09-06T05:42:24.037Z,100.00
2023-09-06T05:44:54.528Z,100.00
2023-09-06T05:47:25.047Z,100.00
2023-09-06T05:49:57.340Z,100.00
2023-09-06T05:52:29.989Z,100.00
2023-09-06T05:55:01.059Z,100.00
2023-09-06T05:57:32.736Z,100.00
2023-09-06T06:00:03.363Z,100.00
2023-09-06T06:02:43.327Z,100.00
2023-09-06T06:05:15.340Z,100.00
2023-09-06T06:07:45.731Z,100.00
2023-09-06T06:10:16.475Z,100.00
2023-09-06T06:12:48.477Z,100.00
2023-09-06T06:15:18.216Z,100.00
2023-09-06T06:17:49.419Z,100.00
2023-09-06T06:20:22.880Z,100.00
2023-09-06T06:22:55.695Z,100.00
2023-09-06T06:25:25.835Z,100.00
2023-09-06T06:27:57.468Z,100.00
2023-09-06T06:30:27.548Z,100.00
2023-09-06T06:33:01.906Z,100.00
2023-09-06T06:35:31.713Z,100.00
2023-09-06T06:38:03.608Z,99.17
2023-09-06T06:40:37.466Z,97.63
2023-09-06T06:43:09.279Z,95.90
2023-09-06T06:45:39.067Z,95.49
2023-09-06T06:48:10.250Z,93.59
2023-09-06T06:50:39.960Z,93.31
2023-09-06T06:53:10.257Z,90.67
2023-09-06T06:55:40.196Z,89.05
2023-09-06T06:58:11.924Z,87.25
2023-09-06T07:00:42.432Z,87.73
2023-09-06T07:03:13.490Z,87.71
2023-09-06T07:05:43.196Z,88.37
2023-09-06T07:08:13.302Z,85.68
2023-09-06T07:10:43.081Z,85.67
2023-09-06T07:13:14.479Z,84.50
2023-09-06T07:15:45.350Z,84.76
2023-09-06T07:18:16.333Z,85.81
2023-09-06T07:20:46.115Z,82.53
2023-09-06T07:23:16.281Z,82.48
2023-09-06T07:25:48.828Z,83.45
2023-09-06T07:28:20.262Z,85.46
2023-09-06T07:30:49.935Z,83.68
2023-09-06T07:33:20.084Z,83.54
2023-09-06T07:35:49.712Z,81.45
2023-09-06T07:38:19.874Z,80.99
2023-09-06T07:40:49.618Z,80.99
2023-09-06T07:43:21.137Z,80.17
2023-09-06T07:45:50.838Z,81.56
2023-09-06T07:48:21.154Z,80.48
2023-09-06T07:50:51.528Z,79.69
2023-09-06T07:53:22.055Z,79.94
2023-09-06T07:55:52.367Z,78.24
2023-09-06T07:58:24.268Z,73.90
2023-09-06T08:01:06.239Z,72.10
2023-09-06T08:03:44.296Z,69.94
2023-09-06T08:06:15.815Z,68.64
2023-09-06T08:08:46.513Z,67.94
2023-09-06T08:11:18.847Z,67.17
2023-09-06T08:13:50.339Z,65.56
2023-09-06T08:16:20.721Z,64.91
2023-09-06T08:18:51.718Z,64.80
2023-09-06T08:21:21.509Z,68.69
2023-09-06T08:23:51.702Z,68.68
2023-09-06T08:26:21.380Z,69.35
2023-09-06T08:28:52.920Z,69.39
2023-09-06T08:31:22.702Z,69.83
2023-09-06T08:33:52.869Z,66.92
2023-09-06T08:36:22.601Z,66.27
2023-09-06T08:38:52.948Z,66.17
2023-09-06T08:41:23.225Z,63.60
2023-09-06T08:43:55.201Z,61.20
2023-09-06T08:46:31.197Z,60.42
2023-09-06T08:49:02.597Z,58.65
2023-09-06T08:51:37.074Z,59.11
2023-09-06T08:54:07.708Z,59.98
2023-09-06T08:56:38.098Z,58.02
2023-09-06T08:59:10.376Z,59.17
2023-09-06T09:01:40.612Z,59.60
2023-09-06T09:04:10.966Z,57.61
2023-09-06T09:06:44.002Z,58.25
2023-09-06T09:09:17.669Z,57.66
2023-09-06T09:11:47.994Z,56.92
2023-09-06T09:14:23.550Z,55.69
2023-09-06T09:16:57.183Z,56.12
2023-09-06T09:19:28.353Z,57.30
2023-09-06T09:21:58.141Z,58.45
2023-09-06T09:24:28.653Z,57.90
2023-09-06T09:26:58.997Z,58.75
2023-09-06T09:29:31.106Z,60.08
2023-09-06T09:32:05.679Z,61.06
2023-09-06T09:34:35.929Z,60.34
2023-09-06T09:37:07.292Z,60.27
2023-09-06T09:39:37.487Z,60.06
2023-09-06T09:42:07.432Z,60.66
2023-09-06T09:44:39.258Z,59.64
2023-09-06T09:47:31.309Z,60.68
2023-09-06T09:50:02.212Z,58.87
2023-09-06T09:52:33.041Z,59.42
2023-09-06T09:55:05.178Z,59.20
2023-09-06T09:57:36.783Z,59.48
2023-09-06T10:00:13.001Z,59.59
2023-09-06T10:02:43.630Z,61.11
2023-09-06T10:05:18.330Z,61.09
2023-09-06T10:07:50.293Z,61.12
2023-09-06T10:10:21.498Z,61.52
2023-09-06T10:12:51.751Z,60.57
2023-09-06T10:15:25.207Z,60.98
2023-09-06T10:17:57.375Z,62.33
2023-09-06T10:20:28.535Z,62.01
2023-09-06T10:22:58.889Z,62.06
2023-09-06T10:25:32.528Z,63.40
2023-09-06T10:28:02.384Z,64.24
2023-09-06T10:30:46.372Z,64.72
2023-09-06T10:33:32.682Z,63.14
2023-09-06T10:36:08.853Z,63.98
2023-09-06T10:39:05.783Z,63.54
2023-09-06T10:41:35.726Z,62.83
2023-09-06T10:44:07.724Z,64.19
2023-09-06T10:46:39.724Z,64.62
2023-09-06T10:49:22.529Z,64.36
2023-09-06T10:51:59.893Z,65.48
2023-09-06T10:54:38.697Z,63.61
2023-09-06T10:57:11.799Z,62.98
2023-09-06T10:59:42.541Z,65.02
2023-09-06T11:02:19.050Z,63.91
2023-09-06T11:04:49.896Z,65.72
2023-09-06T11:07:22.703Z,64.80
2023-09-06T11:09:55.966Z,64.62
2023-09-06T11:12:29.039Z,64.63
2023-09-06T11:14:58.771Z,66.07
2023-09-06T11:17:30.230Z,64.77
2023-09-06T11:20:11.440Z,65.12
2023-09-06T11:22:49.610Z,65.81
2023-09-06T11:25:19.906Z,64.70
2023-09-06T11:27:51.408Z,65.86
2023-09-06T11:30:23.295Z,64.31
2023-09-06T11:32:55.714Z,65.75
2023-09-06T11:35:27.685Z,65.29
2023-09-06T11:37:58.727Z,64.90
2023-09-06T11:40:29.796Z,64.70
2023-09-06T11:43:02.293Z,63.11
2023-09-06T11:45:33.063Z,64.75
2023-09-06T11:48:07.302Z,65.28
2023-09-06T11:50:37.616Z,64.87
2023-09-06T11:53:11.718Z,63.51
2023-09-06T11:55:44.484Z,66.04
2023-09-06T11:58:18.406Z,64.67
2023-09-06T12:00:51.932Z,64.27
2023-09-06T12:03:30.477Z,66.55
2023-09-06T12:06:02.083Z,64.71
2023-09-06T12:08:35.386Z,64.79
2023-09-06T12:11:12.334Z,65.20
2023-09-06T12:13:42.529Z,63.57
2023-09-06T12:16:12.868Z,63.08
2023-09-06T12:18:44.641Z,63.87
2023-09-06T12:21:16.679Z,63.08
2023-09-06T12:23:47.468Z,62.63
2023-09-06T12:26:18.524Z,63.16
2023-09-06T12:28:49.348Z,62.18
2023-09-06T12:31:19.000Z,61.14
2023-09-06T12:33:52.584Z,61.38
2023-09-06T12:36:22.310Z,58.79
2023-09-06T12:38:53.577Z,59.97
2023-09-06T12:41:23.201Z,59.31
2023-09-06T12:43:53.225Z,59.85
2023-09-06T12:46:22.987Z,58.91
2023-09-06T12:48:54.712Z,58.41
2023-09-06T12:51:24.468Z,58.40
2023-09-06T12:53:54.491Z,60.02
2023-09-06T12:56:24.403Z,61.30
2023-09-06T12:58:54.345Z,61.40
2023-09-06T13:01:24.243Z,59.97
2023-09-06T13:03:55.812Z,59.43
2023-09-06T13:06:25.639Z,62.95
2023-09-06T13:08:55.589Z,62.34
2023-09-06T13:11:25.429Z,62.08
2023-09-06T13:13:55.432Z,60.11
2023-09-06T13:16:25.203Z,63.05
2023-09-06T13:18:56.551Z,64.96
2023-09-06T13:21:26.383Z,65.91
2023-09-06T13:23:56.306Z,68.13
2023-09-06T13:26:26.020Z,68.86
2023-09-06T13:28:56.010Z,69.08
2023-09-06T13:31:25.955Z,69.92
2023-09-06T13:33:57.587Z,70.18
2023-09-06T13:36:27.475Z,70.35
2023-09-06T13:38:57.669Z,70.92
2023-09-06T13:41:27.260Z,70.97
2023-09-06T13:43:57.734Z,71.55
2023-09-06T13:46:27.578Z,71.21
2023-09-06T13:49:00.790Z,70.65
2023-09-06T13:51:30.800Z,68.66
2023-09-06T13:54:00.824Z,68.01
2023-09-06T13:56:31.871Z,69.72
2023-09-06T13:59:01.893Z,70.63
2023-09-06T14:01:31.654Z,69.77
2023-09-06T14:04:03.259Z,70.09
2023-09-06T14:06:33.185Z,71.83
2023-09-06T14:09:03.993Z,73.72
2023-09-06T14:11:33.676Z,75.00
2023-09-06T14:14:05.707Z,75.33
2023-09-06T14:16:35.622Z,75.79
2023-09-06T14:19:07.373Z,75.52
2023-09-06T14:21:39.870Z,76.33
2023-09-06T14:24:09.983Z,76.23
2023-09-06T14:26:39.997Z,77.94
2023-09-06T14:29:10.156Z,78.34
2023-09-06T14:31:40.198Z,78.53
2023-09-06T14:34:12.836Z,79.88
2023-09-06T14:36:42.803Z,78.98
2023-09-06T14:39:13.095Z,79.48
2023-09-06T14:41:42.950Z,80.73
2023-09-06T14:44:13.191Z,82.43
2023-09-06T14:46:45.643Z,81.55
2023-09-06T14:49:17.447Z,82.54
2023-09-06T14:51:47.095Z,80.99
2023-09-06T14:54:17.905Z,81.83
2023-09-06T14:56:47.640Z,81.16
2023-09-06T14:59:17.877Z,82.79
2023-09-06T15:01:47.559Z,82.48
2023-09-06T15:04:19.166Z,83.76
2023-09-06T15:06:59.206Z,83.44
2023-09-06T15:09:30.765Z,84.08
2023-09-06T15:12:03.035Z,84.71
2023-09-06T15:14:33.649Z,84.86
2023-09-06T15:17:04.614Z,86.04
2023-09-06T15:19:36.098Z,85.42
2023-09-06T15:22:06.926Z,85.75
2023-09-06T15:24:37.099Z,85.16
2023-09-06T15:27:06.991Z,86.15
2023-09-06T15:29:37.875Z,86.80
2023-09-06T15:32:08.418Z,86.26
2023-09-06T15:34:41.014Z,86.53
2023-09-06T15:37:11.321Z,88.16
2023-09-06T15:39:43.221Z,88.70
2023-09-06T15:42:13.590Z,88.55
2023-09-06T15:44:43.787Z,89.06
2023-09-06T15:47:14.688Z,90.73
2023-09-06T15:49:46.613Z,91.05
2023-09-06T15:52:16.410Z,91.70
2023-09-06T15:54:46.481Z,92.20
2023-09-06T15:57:16.047Z,92.36
2023-09-06T15:59:46.021Z,94.03
2023-09-06T16:02:15.834Z,93.08
2023-09-06T16:04:47.905Z,95.45
2023-09-06T16:07:17.615Z,95.28
2023-09-06T16:09:47.490Z,93.85
2023-09-06T16:12:17.749Z,93.34
2023-09-06T16:14:53.148Z,94.65
2023-09-06T16:17:22.884Z,94.01
2023-09-06T16:19:54.531Z,93.75
2023-09-06T16:22:24.293Z,93.45
2023-09-06T16:24:54.360Z,93.84
2023-09-06T16:27:24.104Z,94.68
2023-09-06T16:29:54.478Z,95.07
2023-09-06T16:32:24.343Z,96.43
2023-09-06T16:34:55.998Z,96.90
2023-09-06T16:37:25.592Z,97.71
2023-09-06T16:39:55.869Z,97.31
2023-09-06T16:42:25.663Z,97.79
2023-09-06T16:44:55.700Z,98.64
2023-09-06T16:47:25.566Z,99.14
2023-09-06T16:49:57.107Z,100.00
2023-09-06T16:52:27.033Z,100.00
2023-09-06T16:54:57.435Z,100.00
2023-09-06T16:57:28.336Z,100.00
2023-09-06T16:59:58.424Z,100.00
2023-09-06T17:02:28.198Z,100.00
2023-09-06T17:04:59.704Z,100.00
2023-09-06T17:07:29.629Z,100.00
2023-09-06T17:09:59.852Z,100.00
2023-09-06T17:12:29.664Z,100.00
2023-09-06T17:15:07.011Z,100.00
2023-09-06T17:17:36.812Z,100.00
2023-09-06T17:20:09.555Z,100.00
2023-09-06T17:22:39.519Z,100.00
2023-09-06T17:25:10.751Z,100.00
2023-09-06T17:27:43.549Z,100.00
2023-09-06T17:30:20.865Z,100.00
2023-09-06T17:33:13.466Z,100.00
2023-09-06T17:35:45.846Z,100.00
2023-09-06T17:38:19.119Z,100.00
2023-09-06T17:40:54.778Z,100.00
2023-09-06T17:43:28.616Z,100.00
2023-09-06T17:46:00.924Z,100.00
2023-09-06T17:48:30.976Z,100.00
2023-09-06T17:51:13.670Z,100.00
2023-09-06T17:53:44.765Z,100.00
2023-09-06T17:56:18.786Z,100.00
2023-09-06T17:58:51.029Z,100.00
2023-09-06T18:01:21.209Z,100.00
2023-09-06T18:03:53.423Z,100.00
2023-09-06T18:06:27.976Z,100.00
2023-09-06T18:08:59.575Z,100.00
2023-09-06T18:11:31.326Z,100.00
2023-09-06T18:14:01.177Z,100.00
2023-09-06T18:16:33.632Z,100.00
2023-09-06T18:19:08.773Z,100.00
2023-09-06T18:21:42.024Z,100.00
2023-09-06T18:24:15.606Z,100.00
2023-09-06T18:26:58.138Z,100.00
2023-09-06T18:29:35.688Z,100.00
2023-09-06T18:32:07.860Z,100.00
2023-09-06T18:34:37.578Z,100.00
2023-09-06T18:37:09.711Z,100.00
2023-09-06T18:39:40.624Z,100.00
2023-09-06T18:42:10.936Z,100.00
2023-09-06T18:44:41.213Z,100.00
2023-09-06T18:47:11.250Z,100.00
2023-09-06T18:49:41.514Z,100.00
2023-09-06T18:52:13.750Z,100.00
2023-09-06T18:54:44.768Z,100.00
2023-09-06T18:57:17.157Z,100.00
2023-09-06T18:59:46.960Z,100.00
2023-09-06T19:02:17.618Z,100.00
2023-09-06T19:04:47.424Z,100.00
2023-09-06T19:07:18.968Z,100.00
2023-09-06T19:09:49.072Z,100.00
2023-09-06T19:12:19.796Z,100.00
2023-09-06T19:14:49.727Z,100.00
2023-09-06T19:17:22.306Z,100.00
2023-09-06T19:19:54.838Z,100.00
2023-09-06T19:22:26.536Z,100.00
2023-09-06T19:24:57.002Z,100.00
2023-09-06T19:27:28.711Z,100.00
2023-09-06T19:29:59.215Z,100.00
2023-09-06T19:32:29.193Z,100.00
2023-09-06T19:34:59.046Z,100.00
2023-09-06T19:37:31.047Z,100.00
2023-09-06T19:40:01.899Z,100.00
2023-09-06T19:42:31.956Z,100.00
2023-09-06T19:45:01.745Z,100.00
2023-09-06T19:47:32.301Z,100.00
2023-09-06T19:50:02.821Z,100.00
2023-09-06T19:52:35.287Z,100.00
2023-09-06T19:55:05.686Z,100.00
2023-09-06T19:57:35.747Z,100.00
2023-09-06T20:00:08.156Z,100.00
2023-09-06T20:02:44.223Z,100.00
2023-09-06T20:05:14.585Z,100.00
2023-09-06T20:07:46.675Z,100.00
2023-09-06T20:10:16.425Z,100.00
2023-09-06T20:12:46.518Z,100.00
2023-09-06T20:15:16.536Z,100.00
2023-09-06T20:17:46.769Z,100.00
2023-09-06T20:20:19.129Z,100.00
2023-09-06T20:22:50.789Z,100.00
2023-09-06T20:25:21.204Z,100.00
2023-09-06T20:27:51.203Z,100.00
2023-09-06T20:30:21.048Z,100.00
2023-09-06T20:32:51.334Z,100.00
2023-09-06T20:35:22.178Z,100.00
2023-09-06T20:37:53.768Z,100.00
2023-09-06T20:40:23.585Z,100.00
2023-09-06T20:42:53.667Z,100.00
2023-09-06T20:45:23.234Z,100.00
2023-09-06T20:47:53.164Z,100.00
2023-09-06T20:50:22.928Z,100.00
2023-09-06T20:52:54.347Z,100.00
2023-09-06T20:55:24.064Z,100.00
2023-09-06T20:57:54.017Z,100.00
2023-09-06T21:00:24.210Z,100.00
2023-09-06T21:02:54.378Z,100.00
2023-09-06T21:05:24.244Z,100.00
2023-09-06T21:07:55.868Z,100.00
2023-09-06T21:10:25.794Z,100.00
2023-09-06T21:12:55.855Z,100.00
2023-09-06T21:15:25.625Z,100.00
2023-09-06T21:17:55.768Z,100.00
2023-09-06T21:20:25.638Z,100.00
2023-09-06T21:22:57.129Z,100.00
2023-09-06T21:25:26.787Z,100.00
2023-09-06T21:27:56.933Z,100.00
2023-09-06T21:30:26.601Z,100.00
2023-09-06T21:32:56.801Z,100.00
2023-09-06T21:35:26.812Z,100.00
2023-09-06T21:37:58.247Z,100.00
2023-09-06T21:40:28.864Z,100.00
2023-09-06T21:43:14.560Z,100.00
2023-09-06T21:45:47.364Z,100.00
2023-09-06T21:48:18.510Z,100.00
2023-09-06T21:50:50.318Z,100.00
2023-09-06T21:53:21.959Z,100.00
2023-09-06T21:55:51.607Z,100.00
2023-09-06T21:58:21.558Z,100.00
2023-09-06T22:01:09.846Z,100.00
2023-09-06T22:03:58.652Z,100.00
2023-09-06T22:06:46.570Z,100.00
2023-09-06T22:09:36.536Z,100.00
2023-09-06T22:12:24.953Z,100.00
2023-09-06T22:14:55.270Z,100.00
2023-09-06T22:17:25.171Z,100.00
2023-09-06T22:19:55.518Z,100.00
2023-09-06T22:22:25.276Z,100.00
2023-09-06T22:24:56.839Z,100.00
2023-09-06T22:27:26.483Z,100.00
2023-09-06T22:29:56.665Z,100.00
2023-09-06T22:32:26.315Z,100.00
2023-09-06T22:34:57.513Z,100.00
2023-09-06T22:37:27.219Z,100.00
2023-09-06T22:39:58.995Z,100.00
2023-09-06T22:42:27.540Z,100.00
2023-09-06T22:44:58.560Z,100.00
2023-09-06T22:47:28.424Z,100.00
2023-09-06T22:49:58.508Z,100.00
2023-09-06T22:52:28.217Z,100.00
2023-09-06T22:54:59.848Z,100.00
2023-09-06T22:57:29.480Z,100.00
2023-09-06T22:59:59.807Z,100.00
2023-09-06T23:02:29.533Z,100.00
2023-09-06T23:04:59.743Z,100.00
2023-09-06T23:07:29.433Z,100.00
2023-09-06T23:10:02.316Z,100.00
2023-09-06T23:12:32.497Z,100.00
2023-09-06T23:15:04.936Z,100.00
2023-09-06T23:17:38.824Z,100.00
2023-09-06T23:20:15.366Z,100.00
2023-09-06T23:22:46.438Z,100.00
2023-09-06T23:25:23.040Z,100.00
2023-09-06T23:27:54.220Z,100.00
2023-09-06T23:30:26.382Z,100.00
2023-09-06T23:33:02.509Z,100.00
2023-09-06T23:35:32.556Z,100.00
2023-09-06T23:38:07.844Z,100.00
2023-09-06T23:40:39.285Z,100.00
2023-09-06T23:43:10.875Z,100.00
2023-09-06T23:45:46.594Z,100.00
2023-09-06T23:48:17.401Z,100.00
2023-09-06T23:50:48.083Z,100.00
2023-09-06T23:53:19.014Z,100.00
2023-09-06T23:55:50.497Z,100.00
2023-09-06T23:58:20.277Z,100.00
